createdAt,value
2023-03-21T00:01:03.858Z,10.40
2023-03-21T00:03:36.830Z,11.53
2023-03-21T00:06:11.270Z,11.37
2023-03-21T00:08:44.738Z,11.67
2023-03-21T00:11:19.029Z,12.73
2023-03-21T00:13:53.480Z,9.40
2023-03-21T00:16:28.743Z,9.93
2023-03-21T00:19:06.353Z,10.60
2023-03-21T00:21:59.524Z,10.23
2023-03-21T00:24:35.259Z,11.03
2023-03-21T00:27:42.587Z,10.37
2023-03-21T00:30:02.195Z,11.03
2023-03-21T00:32:39.787Z,12.33
2023-03-21T00:35:51.744Z,11.37
2023-03-21T00:38:08.917Z,12.37
2023-03-21T00:40:48.783Z,9.13
2023-03-21T00:43:29.964Z,12.13
2023-03-21T00:46:03.129Z,9.63
2023-03-21T00:48:36.220Z,11.07
2023-03-21T00:51:13.372Z,9.80
2023-03-21T00:53:46.770Z,12.40
2023-03-21T00:56:19.667Z,9.37
2023-03-21T00:58:54.226Z,10.63
2023-03-21T01:01:31.804Z,12.27
2023-03-21T01:04:05.691Z,12.70
2023-03-21T01:06:40.146Z,12.77
2023-03-21T01:09:14.021Z,12.57
2023-03-21T01:11:46.845Z,12.43
2023-03-21T01:14:23.566Z,11.87
2023-03-21T01:16:57.032Z,12.83
2023-03-21T01:19:48.316Z,13.33
2023-03-21T01:22:26.461Z,13.47
2023-03-21T01:25:12.096Z,14.17
2023-03-21T01:27:52.294Z,14.97
2023-03-21T01:30:28.698Z,14.67
2023-03-21T01:33:04.094Z,17.80
2023-03-21T01:35:49.233Z,17.33
2023-03-21T01:38:26.054Z,15.33
2023-03-21T01:41:00.828Z,17.03
2023-03-21T01:43:40.183Z,16.07
2023-03-21T01:46:32.239Z,16.93
2023-03-21T01:49:13.739Z,18.37
2023-03-21T01:51:49.306Z,16.23
2023-03-21T01:54:25.495Z,17.03
2023-03-21T01:56:59.267Z,17.40
2023-03-21T01:59:34.878Z,15.47
2023-03-21T02:02:09.996Z,17.60
2023-03-21T02:04:51.918Z,16.30
2023-03-21T02:07:25.996Z,18.93
2023-03-21T02:09:59.866Z,17.07
2023-03-21T02:12:36.042Z,22.67
2023-03-21T02:15:09.662Z,20.20
2023-03-21T02:17:44.614Z,21.83
2023-03-21T02:20:36.645Z,23.23
2023-03-21T02:23:24.280Z,21.03
2023-03-21T02:26:17.584Z,22.60
2023-03-21T02:28:52.691Z,25.83
2023-03-21T02:31:28.318Z,24.17
2023-03-21T02:34:16.082Z,22.17
2023-03-21T02:36:56.955Z,25.17
2023-03-21T02:39:31.926Z,25.53
2023-03-21T02:42:06.556Z,32.23
2023-03-21T02:44:43.179Z,28.20
2023-03-21T02:47:19.669Z,31.50
2023-03-21T02:49:55.946Z,26.40
2023-03-21T02:52:39.067Z,25.40
2023-03-21T02:55:15.485Z,30.23
2023-03-21T02:57:52.553Z,27.60
2023-03-21T03:00:27.369Z,30.57
2023-03-21T03:03:09.646Z,27.13
2023-03-21T03:05:46.857Z,29.30
2023-03-21T03:08:38.495Z,26.77
2023-03-21T03:11:19.645Z,28.63
2023-03-21T03:13:58.171Z,27.83
2023-03-21T03:16:41.152Z,28.37
2023-03-21T03:19:21.491Z,27.43
2023-03-21T03:22:07.451Z,26.83
2023-03-21T03:24:44.369Z,27.27
2023-03-21T03:27:22.178Z,28.33
2023-03-21T03:29:55.694Z,30.13
2023-03-21T03:32:30.592Z,30.07
2023-03-21T03:35:04.351Z,29.13
2023-03-21T03:37:38.107Z,29.53
2023-03-21T03:40:16.926Z,30.00
2023-03-21T03:42:52.646Z,29.00
2023-03-21T03:45:28.657Z,30.40
2023-03-21T03:48:05.935Z,29.00
2023-03-21T03:50:40.757Z,28.03
2023-03-21T03:53:22.295Z,31.17
2023-03-21T03:55:58.653Z,28.83
2023-03-21T03:58:44.596Z,32.73
2023-03-21T04:01:18.289Z,37.73
2023-03-21T04:04:03.705Z,30.30
2023-03-21T04:06:43.604Z,31.00
2023-03-21T04:09:20.998Z,31.50
2023-03-21T04:11:56.167Z,31.77
2023-03-21T04:14:38.885Z,37.93
2023-03-21T04:17:16.987Z,35.90
2023-03-21T04:19:55.535Z,32.97
2023-03-21T04:22:31.138Z,33.50
2023-03-21T04:25:05.279Z,32.67
2023-03-21T04:27:39.381Z,33.77
2023-03-21T04:30:12.557Z,30.33
2023-03-21T04:32:45.452Z,34.30
2023-03-21T04:35:18.500Z,34.10
2023-03-21T04:37:51.201Z,28.27
2023-03-21T04:40:25.545Z,32.73
2023-03-21T04:43:01.225Z,33.37
2023-03-21T04:45:36.761Z,31.00
2023-03-21T04:48:10.090Z,31.03
2023-03-21T04:50:42.797Z,30.83
2023-03-21T04:53:15.840Z,34.60
2023-03-21T04:55:52.420Z,38.40
2023-03-21T04:58:27.739Z,39.57
2023-03-21T05:01:02.539Z,30.50
2023-03-21T05:03:40.298Z,35.10
2023-03-21T05:06:13.926Z,31.93
2023-03-21T05:08:46.748Z,31.57
2023-03-21T05:11:19.527Z,35.10
2023-03-21T05:13:56.207Z,35.30
2023-03-21T05:16:30.891Z,34.40
2023-03-21T05:19:04.943Z,32.40
2023-03-21T05:21:42.048Z,31.20
2023-03-21T05:24:16.014Z,31.53
2023-03-21T05:26:52.430Z,31.23
2023-03-21T05:29:26.626Z,32.50
2023-03-21T05:31:59.770Z,31.17
2023-03-21T05:34:35.785Z,44.97
2023-03-21T05:37:08.548Z,36.30
2023-03-21T05:39:43.578Z,37.60
2023-03-21T05:42:20.593Z,32.77
2023-03-21T05:44:55.680Z,30.97
2023-03-21T05:47:28.464Z,33.53
2023-03-21T05:50:01.332Z,36.53
2023-03-21T05:52:34.188Z,36.80
2023-03-21T05:55:07.231Z,36.63
2023-03-21T05:57:41.005Z,36.70
2023-03-21T06:00:16.032Z,37.43
2023-03-21T06:02:49.026Z,44.63
2023-03-21T06:05:24.595Z,37.93
2023-03-21T06:07:57.555Z,41.67
2023-03-21T06:10:32.960Z,40.93
2023-03-21T06:13:05.817Z,37.17
2023-03-21T06:15:40.630Z,34.30
2023-03-21T06:18:13.469Z,38.03
2023-03-21T06:20:49.023Z,33.80
2023-03-21T06:23:21.745Z,33.13
2023-03-21T06:25:54.826Z,38.40
2023-03-21T06:28:27.763Z,36.57
2023-03-21T06:31:01.966Z,34.23
2023-03-21T06:33:34.765Z,34.03
2023-03-21T06:36:08.157Z,37.60
2023-03-21T06:38:40.939Z,37.07
2023-03-21T06:41:13.709Z,42.67
2023-03-21T06:43:46.649Z,35.67
2023-03-21T06:46:21.049Z,38.93
2023-03-21T06:48:53.976Z,37.20
2023-03-21T06:51:26.759Z,39.30
2023-03-21T06:53:59.637Z,31.50
2023-03-21T06:56:32.567Z,34.83
2023-03-21T06:59:06.959Z,36.33
2023-03-21T07:01:42.807Z,39.50
2023-03-21T07:04:15.733Z,31.77
2023-03-21T07:06:49.721Z,33.50
2023-03-21T07:09:24.635Z,33.63
2023-03-21T07:11:57.917Z,34.80
2023-03-21T07:14:35.936Z,33.43
2023-03-21T07:17:11.594Z,36.57
2023-03-21T07:19:44.951Z,34.03
2023-03-21T07:22:17.873Z,39.80
2023-03-21T07:25:05.040Z,38.27
2023-03-21T07:27:40.778Z,40.07
2023-03-21T07:30:14.263Z,36.57
2023-03-21T07:32:48.826Z,34.60
2023-03-21T07:35:22.123Z,37.07
2023-03-21T07:37:55.903Z,40.53
2023-03-21T07:40:32.137Z,35.33
2023-03-21T07:43:05.156Z,41.97
2023-03-21T07:45:38.304Z,38.30
2023-03-21T07:48:13.512Z,37.67
2023-03-21T07:50:46.553Z,40.23
2023-03-21T07:53:19.408Z,39.77
2023-03-21T07:55:52.637Z,41.67
2023-03-21T07:58:25.652Z,39.27
2023-03-21T08:00:59.634Z,40.47
2023-03-21T08:03:33.759Z,45.77
2023-03-21T08:06:07.013Z,38.97
2023-03-21T08:08:40.080Z,37.63
2023-03-21T08:11:13.275Z,35.33
2023-03-21T08:13:46.074Z,36.10
2023-03-21T08:16:18.769Z,39.57
2023-03-21T08:18:55.917Z,36.83
2023-03-21T08:21:31.577Z,40.63
2023-03-21T08:24:04.334Z,35.70
2023-03-21T08:26:37.161Z,38.53
2023-03-21T08:29:10.202Z,34.77
2023-03-21T08:31:43.150Z,36.70
2023-03-21T08:34:20.441Z,35.40
2023-03-21T08:36:53.197Z,38.63
2023-03-21T08:39:26.106Z,33.23
2023-03-21T08:41:59.050Z,37.50
2023-03-21T08:44:31.947Z,39.30
2023-03-21T08:47:04.693Z,35.77
2023-03-21T08:49:38.929Z,30.50
2023-03-21T08:52:12.052Z,34.63
2023-03-21T08:54:45.398Z,35.13
2023-03-21T08:57:18.232Z,36.33
2023-03-21T08:59:51.714Z,37.80
2023-03-21T09:02:24.709Z,39.77
2023-03-21T09:05:01.085Z,35.47
2023-03-21T09:07:34.715Z,36.97
2023-03-21T09:10:20.296Z,38.93
2023-03-21T09:12:57.998Z,35.60
2023-03-21T09:15:30.806Z,31.23
2023-03-21T09:18:13.821Z,29.47
2023-03-21T09:20:48.196Z,31.17
2023-03-21T09:23:21.692Z,32.73
2023-03-21T09:25:54.660Z,30.47
2023-03-21T09:28:27.473Z,30.17
2023-03-21T09:31:00.876Z,31.53
2023-03-21T09:33:35.386Z,29.43
2023-03-21T09:36:17.378Z,32.53
2023-03-21T09:38:51.652Z,29.27
2023-03-21T09:41:33.539Z,32.20
2023-03-21T09:44:12.568Z,30.77
2023-03-21T09:46:50.609Z,25.50
2023-03-21T09:49:25.508Z,28.67
2023-03-21T09:52:03.563Z,28.10
2023-03-21T09:54:38.443Z,27.83
2023-03-21T09:57:19.695Z,26.80
2023-03-21T09:59:55.336Z,26.43
2023-03-21T10:02:36.761Z,29.37
2023-03-21T10:05:14.311Z,28.93
2023-03-21T10:07:52.530Z,29.03
2023-03-21T10:10:27.277Z,28.67
2023-03-21T10:13:00.030Z,27.83
2023-03-21T10:15:33.105Z,29.17
2023-03-21T10:18:09.676Z,29.10
2023-03-21T10:20:46.073Z,32.63
2023-03-21T10:23:21.271Z,28.43
2023-03-21T10:25:56.077Z,30.93
2023-03-21T10:28:50.020Z,32.27
2023-03-21T10:31:29.888Z,29.87
2023-03-21T10:34:04.589Z,42.70
2023-03-21T10:36:38.521Z,27.80
2023-03-21T10:39:19.380Z,29.13
2023-03-21T10:41:53.240Z,26.10
2023-03-21T10:44:30.382Z,28.97
2023-03-21T10:47:08.354Z,27.17
2023-03-21T10:50:05.937Z,27.97
2023-03-21T10:52:34.921Z,29.07
2023-03-21T10:55:18.777Z,31.83
2023-03-21T10:57:57.575Z,30.97
2023-03-21T11:00:31.484Z,26.33
2023-03-21T11:03:04.550Z,28.53
2023-03-21T11:05:42.612Z,25.97
2023-03-21T11:08:16.580Z,24.97
2023-03-21T11:10:55.850Z,29.13
2023-03-21T11:13:33.993Z,26.27
2023-03-21T11:16:08.506Z,28.07
2023-03-21T11:18:42.707Z,26.60
2023-03-21T11:21:30.538Z,28.43
2023-03-21T11:24:44.344Z,22.37
2023-03-21T11:27:22.189Z,23.13
2023-03-21T11:29:55.248Z,26.37
2023-03-21T11:32:32.097Z,24.53
2023-03-21T11:35:06.311Z,25.63
2023-03-21T11:37:40.374Z,24.07
2023-03-21T11:40:23.676Z,23.73
2023-03-21T11:42:58.502Z,26.97
2023-03-21T11:45:32.940Z,28.53
2023-03-21T11:48:09.594Z,22.77
2023-03-21T11:50:43.522Z,23.63
2023-03-21T11:53:21.653Z,31.73
2023-03-21T11:56:01.831Z,21.80
2023-03-21T11:58:41.737Z,21.13
2023-03-21T12:01:21.135Z,25.30
2023-03-21T12:04:03.908Z,23.10
2023-03-21T12:06:38.433Z,23.10
2023-03-21T12:09:23.768Z,20.83
2023-03-21T12:12:01.262Z,19.43
2023-03-21T12:14:38.530Z,19.67
2023-03-21T12:17:16.325Z,19.13
2023-03-21T12:20:08.071Z,22.67
2023-03-21T12:22:45.777Z,17.40
2023-03-21T12:25:21.562Z,20.80
2023-03-21T12:27:56.382Z,20.03
2023-03-21T12:30:40.053Z,18.60
2023-03-21T12:33:19.632Z,20.17
2023-03-21T12:35:57.822Z,20.83
2023-03-21T12:38:35.920Z,20.97
2023-03-21T12:41:33.674Z,84.73
2023-03-21T12:44:09.461Z,22.50
2023-03-21T12:46:46.659Z,22.80
2023-03-21T12:49:22.606Z,20.23
2023-03-21T12:51:58.589Z,20.53
2023-03-21T12:54:33.257Z,19.90
2023-03-21T12:57:08.587Z,23.77
2023-03-21T12:59:45.438Z,19.40
2023-03-21T13:02:24.993Z,21.33
2023-03-21T13:05:02.298Z,18.87
2023-03-21T13:07:38.174Z,20.23
2023-03-21T13:10:14.966Z,25.17
2023-03-21T13:12:59.159Z,29.23
2023-03-21T13:15:52.959Z,24.17
2023-03-21T13:18:43.418Z,19.43
2023-03-21T13:21:20.039Z,21.30
2023-03-21T13:24:06.856Z,18.97
2023-03-21T13:26:40.852Z,23.20
2023-03-21T13:29:14.739Z,25.30
2023-03-21T13:31:52.456Z,22.70
2023-03-21T13:34:26.770Z,22.93
2023-03-21T13:37:06.656Z,20.50
2023-03-21T13:39:43.869Z,20.77
2023-03-21T13:42:23.856Z,20.37
2023-03-21T13:44:57.811Z,19.20
2023-03-21T13:47:40.527Z,19.47
2023-03-21T13:50:22.220Z,17.53
2023-03-21T13:53:13.787Z,18.30
2023-03-21T13:55:53.009Z,17.57
2023-03-21T13:58:33.294Z,15.53
2023-03-21T14:01:23.892Z,18.37
2023-03-21T14:04:01.192Z,15.07
2023-03-21T14:06:38.576Z,15.33
2023-03-21T14:09:20.421Z,13.87
2023-03-21T14:11:58.788Z,14.77
2023-03-21T14:14:39.374Z,13.33
2023-03-21T14:17:15.441Z,13.87
2023-03-21T14:19:48.533Z,18.30
2023-03-21T14:22:21.346Z,19.50
2023-03-21T14:24:56.615Z,18.20
2023-03-21T14:27:32.796Z,17.67
2023-03-21T14:30:06.757Z,15.30
2023-03-21T14:32:41.357Z,16.47
2023-03-21T14:35:14.553Z,12.97
2023-03-21T14:37:50.192Z,14.00
2023-03-21T14:40:24.282Z,13.73
2023-03-21T14:43:02.077Z,15.40
2023-03-21T14:45:36.037Z,15.47
2023-03-21T14:48:10.193Z,15.30
2023-03-21T14:50:46.298Z,14.70
2023-03-21T14:53:20.824Z,19.27
2023-03-21T14:55:57.310Z,14.90
2023-03-21T14:58:31.897Z,15.37
2023-03-21T15:01:05.889Z,13.80
2023-03-21T15:03:38.614Z,16.30
2023-03-21T15:06:15.498Z,15.23
2023-03-21T15:08:55.752Z,16.40
2023-03-21T15:11:32.554Z,12.70
2023-03-21T15:14:07.937Z,13.70
2023-03-21T15:16:41.323Z,13.23
2023-03-21T15:19:17.038Z,13.57
2023-03-21T15:21:51.032Z,14.60
2023-03-21T15:24:27.163Z,12.57
2023-03-21T15:27:01.344Z,15.27
2023-03-21T15:29:36.844Z,33.40
2023-03-21T15:32:14.700Z,19.10
2023-03-21T15:34:47.486Z,15.93
2023-03-21T15:37:23.642Z,15.10
2023-03-21T15:40:09.413Z,17.10
2023-03-21T15:42:42.263Z,27.80
2023-03-21T15:45:18.984Z,22.00
2023-03-21T15:47:53.553Z,15.30
2023-03-21T15:50:30.862Z,14.40
2023-03-21T15:53:08.414Z,13.63
2023-03-21T15:55:48.301Z,15.00
2023-03-21T15:58:22.466Z,14.43
2023-03-21T16:00:57.488Z,14.57
2023-03-21T16:03:32.210Z,16.50
2023-03-21T16:06:10.925Z,15.50
2023-03-21T16:08:46.979Z,19.80
2023-03-21T16:11:24.347Z,16.77
2023-03-21T16:13:57.437Z,14.30
2023-03-21T16:16:31.711Z,17.13
2023-03-21T16:19:08.365Z,12.83
2023-03-21T16:21:43.631Z,14.80
2023-03-21T16:24:16.408Z,16.97
2023-03-21T16:26:50.870Z,12.80
2023-03-21T16:29:23.800Z,18.23
2023-03-21T16:32:05.696Z,18.03
2023-03-21T16:34:42.096Z,12.43
2023-03-21T16:37:15.928Z,12.97
2023-03-21T16:39:48.904Z,13.00
2023-03-21T16:42:22.044Z,12.97
2023-03-21T16:44:54.918Z,15.43
2023-03-21T16:47:29.915Z,16.30
2023-03-21T16:50:06.409Z,14.07
2023-03-21T16:52:39.589Z,17.17
2023-03-21T16:55:29.362Z,16.30
2023-03-21T16:58:03.086Z,14.80
2023-03-21T17:00:39.525Z,16.57
2023-03-21T17:03:19.285Z,20.40
2023-03-21T17:05:55.716Z,20.90
2023-03-21T17:08:30.597Z,16.97
2023-03-21T17:11:07.245Z,17.70
2023-03-21T17:13:41.133Z,19.00
2023-03-21T17:16:14.986Z,18.07
2023-03-21T17:18:49.165Z,20.70
2023-03-21T17:21:23.079Z,22.37
2023-03-21T17:23:56.246Z,20.20
2023-03-21T17:26:29.749Z,19.70
2023-03-21T17:29:02.892Z,23.93
2023-03-21T17:31:36.850Z,24.23
2023-03-21T17:34:11.134Z,22.60
2023-03-21T17:36:46.205Z,20.60
2023-03-21T17:39:22.569Z,22.50
2023-03-21T17:41:56.823Z,23.70
2023-03-21T17:44:29.854Z,26.00
2023-03-21T17:47:02.624Z,25.77
2023-03-21T17:49:38.996Z,21.40
2023-03-21T17:52:11.864Z,23.97
2023-03-21T17:54:44.868Z,24.27
2023-03-21T17:57:17.807Z,25.20
2023-03-21T17:59:50.775Z,24.80
2023-03-21T18:02:23.648Z,22.10
2023-03-21T18:05:00.875Z,25.13
2023-03-21T18:08:05.891Z,26.60
2023-03-21T18:10:28.153Z,27.40
2023-03-21T18:13:01.338Z,27.63
2023-03-21T18:15:35.956Z,22.73
2023-03-21T18:18:11.930Z,23.60
2023-03-21T18:20:52.220Z,27.97
2023-03-21T18:23:26.373Z,43.00
2023-03-21T18:25:59.583Z,41.43
2023-03-21T18:28:32.514Z,26.07
2023-03-21T18:31:11.639Z,23.47
2023-03-21T18:33:46.752Z,22.37
2023-03-21T18:36:25.578Z,26.10
2023-03-21T18:39:01.991Z,23.37
2023-03-21T18:41:35.075Z,24.30
2023-03-21T18:44:17.704Z,22.17
2023-03-21T18:46:58.504Z,24.00
2023-03-21T18:52:29.828Z,25.07
2023-03-21T18:55:02.832Z,25.43
2023-03-21T18:57:38.289Z,24.33
2023-03-21T19:00:21.811Z,27.20
2023-03-21T19:03:13.057Z,29.43
2023-03-21T19:05:50.300Z,25.67
2023-03-21T19:08:26.540Z,27.87
2023-03-21T19:11:04.426Z,23.77
2023-03-21T19:13:38.908Z,27.33
2023-03-21T19:16:11.843Z,22.63
2023-03-21T19:18:54.439Z,31.70
2023-03-21T19:21:30.338Z,22.73
2023-03-21T19:24:26.507Z,22.10
2023-03-21T19:27:01.439Z,21.43
2023-03-21T19:29:34.535Z,21.07
2023-03-21T19:32:07.844Z,22.50
2023-03-21T19:34:40.772Z,21.53
2023-03-21T19:37:13.763Z,25.40
2023-03-21T19:39:48.151Z,26.60
2023-03-21T19:42:23.183Z,26.43
2023-03-21T19:44:56.056Z,42.53
2023-03-21T19:47:29.292Z,34.40
2023-03-21T19:52:55.439Z,33.07
2023-03-21T19:55:29.648Z,27.30
2023-03-21T19:58:02.611Z,28.17
2023-03-21T20:00:35.780Z,35.63
2023-03-21T20:03:10.090Z,34.20
2023-03-21T20:05:43.847Z,28.53
2023-03-21T20:08:20.653Z,28.97
2023-03-21T20:10:55.048Z,26.43
2023-03-21T20:13:28.085Z,28.63
2023-03-21T20:16:03.900Z,34.27
2023-03-21T20:18:40.147Z,26.87
2023-03-21T20:21:25.766Z,26.87
2023-03-21T20:23:59.634Z,28.90
2023-03-21T20:26:37.684Z,26.40
2023-03-21T20:30:00.173Z,26.40
2023-03-21T20:32:08.272Z,25.10
2023-03-21T20:34:59.594Z,27.33
2023-03-21T20:37:41.711Z,24.77
2023-03-21T20:40:16.106Z,27.70
2023-03-21T20:42:51.510Z,27.53
2023-03-21T20:45:25.662Z,26.87
2023-03-21T20:47:59.402Z,27.33
2023-03-21T20:50:33.218Z,32.37
2023-03-21T20:53:07.626Z,38.67
2023-03-21T20:55:41.259Z,31.77
2023-03-21T20:58:43.581Z,31.13
2023-03-21T21:01:16.839Z,29.97
2023-03-21T21:03:50.340Z,28.70
2023-03-21T21:06:23.543Z,30.03
2023-03-21T21:08:56.802Z,32.20
2023-03-21T21:14:23.894Z,35.87
2023-03-21T21:17:02.697Z,33.80
2023-03-21T21:19:43.596Z,34.37
2023-03-21T21:22:16.662Z,36.00
2023-03-21T21:24:51.532Z,35.00
2023-03-21T21:27:26.467Z,33.43
2023-03-21T21:30:04.062Z,34.47
2023-03-21T21:32:40.281Z,33.93
2023-03-21T21:35:18.044Z,34.43
2023-03-21T21:37:52.753Z,36.07
2023-03-21T21:40:31.252Z,36.67
2023-03-21T21:43:05.257Z,41.37
2023-03-21T21:45:41.014Z,45.27
2023-03-21T21:48:15.424Z,39.47
2023-03-21T21:50:52.230Z,38.43
2023-03-21T21:53:34.714Z,39.73
2023-03-21T21:56:11.585Z,38.27
2023-03-21T21:58:47.563Z,37.87
2023-03-21T22:01:24.439Z,36.13
2023-03-21T22:04:07.565Z,39.23
2023-03-21T22:06:46.586Z,36.33
2023-03-21T22:09:36.604Z,41.53
2023-03-21T22:12:13.360Z,34.50
2023-03-21T22:14:49.071Z,35.77
2023-03-21T22:17:30.089Z,34.70
2023-03-21T22:20:07.156Z,36.73
2023-03-21T22:22:43.751Z,35.60
2023-03-21T22:25:17.316Z,38.17
2023-03-21T22:27:50.517Z,32.00
2023-03-21T22:30:25.238Z,33.00
2023-03-21T22:33:09.386Z,34.90
2023-03-21T22:35:45.083Z,36.30
2023-03-21T22:38:26.417Z,32.67
2023-03-21T22:41:00.683Z,34.63
2023-03-21T22:43:39.619Z,36.33
2023-03-21T22:46:13.816Z,34.57
2023-03-21T22:48:49.790Z,33.03
2023-03-21T22:51:22.975Z,30.70
2023-03-21T22:53:56.021Z,35.77
2023-03-21T22:56:32.420Z,33.40
2023-03-21T22:59:06.917Z,35.27
2023-03-21T23:01:42.455Z,28.83
2023-03-21T23:04:20.613Z,30.63
2023-03-21T23:06:54.922Z,34.30
2023-03-21T23:09:30.749Z,29.27
2023-03-21T23:12:04.970Z,29.43
2023-03-21T23:14:41.033Z,28.17
2023-03-21T23:17:16.605Z,28.53
2023-03-21T23:19:56.114Z,27.93
2023-03-21T23:22:33.296Z,22.43
2023-03-21T23:25:08.732Z,27.10
2023-03-21T23:27:46.010Z,25.97
2023-03-21T23:30:20.313Z,25.27
2023-03-21T23:32:56.621Z,25.77
2023-03-21T23:35:35.539Z,28.43
2023-03-21T23:38:08.356Z,26.27
2023-03-21T23:40:42.361Z,27.17
2023-03-21T23:43:15.421Z,26.77
2023-03-21T23:45:49.045Z,24.20
2023-03-21T23:48:23.650Z,21.77
2023-03-21T23:50:58.713Z,23.77
2023-03-21T23:53:32.633Z,25.73
2023-03-21T23:56:12.646Z,23.73
2023-03-21T23:58:50.225Z,28.33
